Time;durP1;ratioP1;P1;durP2;ratioP2;P2;SDS_P1;SDS_P2;PMS_P1;PMS_P2;Temp;Humidity;BMP_temperature;BMP_pressure;BME280_temperature;BME280_humidity;BME280_pressure;Samples;Min_cycle;Max_cycle;Signal;HPM_P1;HPM_P2
2024/01/07 00:02:07;;;;;;;12.65;7.65;;;16.90;55.10;;;;;;5059746;28;45260;-52
2024/01/07 00:04:34;;;;;;;11.75;7.85;;;16.90;55.20;;;;;;5058894;28;45344;-52
2024/01/07 00:07:01;;;;;;;12.60;8.13;;;16.90;55.10;;;;;;5059918;28;45247;-52
2024/01/07 00:09:27;;;;;;;12.95;7.80;;;17.00;55.20;;;;;;5059673;28;45256;-52
2024/01/07 00:11:54;;;;;;;12.27;7.90;;;16.90;55.00;;;;;;5059491;28;45085;-53
2024/01/07 00:14:21;;;;;;;12.02;7.63;;;16.90;54.80;;;;;;5057146;28;46197;-53
2024/01/07 00:16:47;;;;;;;11.35;7.70;;;16.90;54.70;;;;;;5059355;28;45342;-52
2024/01/07 00:19:16;;;;;;;13.77;8.25;;;16.90;54.40;;;;;;5057550;28;44622;-52
2024/01/07 00:21:43;;;;;;;11.35;7.47;;;16.90;54.40;;;;;;5058661;28;45270;-52
2024/01/07 00:24:09;;;;;;;12.48;8.20;;;16.90;54.40;;;;;;5058336;28;45287;-52
2024/01/07 00:26:36;;;;;;;12.68;7.85;;;16.90;54.20;;;;;;5057380;28;45245;-52
2024/01/07 00:29:03;;;;;;;12.63;8.05;;;16.90;54.10;;;;;;5058590;28;45436;-52
2024/01/07 00:31:30;;;;;;;12.20;7.88;;;16.90;54.10;;;;;;5059687;28;45374;-53
2024/01/07 00:33:57;;;;;;;12.20;7.80;;;16.90;54.00;;;;;;5058398;28;46513;-52
2024/01/07 00:36:25;;;;;;;10.15;6.78;;;16.90;54.00;;;;;;5060033;28;45264;-53
2024/01/07 00:38:52;;;;;;;11.05;7.13;;;16.90;54.10;;;;;;5057548;28;45174;-53
2024/01/07 00:41:19;;;;;;;11.70;7.75;;;16.90;54.40;;;;;;5060045;28;45428;-53
2024/01/07 00:43:45;;;;;;;12.63;7.70;;;16.90;54.00;;;;;;5059981;28;46047;-53
2024/01/07 00:46:13;;;;;;;11.52;7.15;;;16.90;54.20;;;;;;5060254;28;45279;-53
2024/01/07 00:48:39;;;;;;;12.23;8.05;;;16.90;54.10;;;;;;5059703;28;45173;-53
2024/01/07 00:51:06;;;;;;;13.45;7.88;;;16.90;53.90;;;;;;5059584;28;45423;-53
2024/01/07 00:53:34;;;;;;;11.00;6.90;;;16.90;53.70;;;;;;5056251;28;46222;-53
2024/01/07 00:56:01;;;;;;;12.20;7.57;;;16.90;53.70;;;;;;5059519;28;45116;-53
2024/01/07 00:58:28;;;;;;;10.50;6.55;;;16.90;53.70;;;;;;5057952;28;45264;-53
2024/01/07 01:00:54;;;;;;;12.88;7.70;;;16.90;53.40;;;;;;5057638;28;45380;-53
2024/01/07 01:03:21;;;;;;;9.63;6.93;;;16.90;53.40;;;;;;5057420;28;46277;-53
2024/01/07 01:05:48;;;;;;;11.63;7.00;;;16.90;53.60;;;;;;5059580;28;45268;-53
2024/01/07 01:08:15;;;;;;;10.68;6.70;;;17.00;53.50;;;;;;5055363;28;45264;-53
2024/01/07 01:10:43;;;;;;;11.25;7.28;;;16.90;53.20;;;;;;5059019;28;45090;-52
2024/01/07 01:13:10;;;;;;;10.60;6.82;;;16.90;53.30;;;;;;5058948;28;48283;-53
2024/01/07 01:15:36;;;;;;;12.02;7.18;;;16.90;53.40;;;;;;5058448;28;45504;-53
2024/01/07 01:18:04;;;;;;;11.95;7.35;;;17.00;53.30;;;;;;5059314;28;45206;-53
2024/01/07 01:20:31;;;;;;;12.75;7.88;;;16.90;53.30;;;;;;5057251;28;45283;-53
2024/01/07 01:22:57;;;;;;;12.07;7.28;;;16.90;53.30;;;;;;5057965;28;46246;-53
2024/01/07 01:25:24;;;;;;;10.95;6.93;;;16.90;53.20;;;;;;5057764;28;45083;-53
2024/01/07 01:27:52;;;;;;;9.00;6.60;;;16.90;53.60;;;;;;5058258;28;45201;-53
2024/01/07 01:30:19;;;;;;;11.18;7.28;;;16.90;53.10;;;;;;5059560;28;45324;-53
2024/01/07 01:32:46;;;;;;;10.65;6.70;;;16.90;53.30;;;;;;5059212;28;45309;-53
2024/01/07 01:35:13;;;;;;;10.27;5.97;;;16.90;53.20;;;;;;5059242;28;45200;-53
2024/01/07 01:37:40;;;;;;;9.32;6.07;;;16.90;53.30;;;;;;5058148;28;45329;-53
2024/01/07 01:40:07;;;;;;;9.10;6.10;;;16.90;53.60;;;;;;5059404;28;45658;-53
2024/01/07 01:42:34;;;;;;;9.63;6.10;;;16.90;53.70;;;;;;5057541;28;46956;-53
2024/01/07 01:45:02;;;;;;;6.95;5.05;;;16.90;53.40;;;;;;5055590;28;45240;-53
2024/01/07 01:47:30;;;;;;;7.43;5.43;;;16.90;53.50;;;;;;5058833;28;45359;-53
2024/01/07 01:49:56;;;;;;;9.30;5.88;;;16.90;53.60;;;;;;5059317;28;45430;-53
2024/01/07 01:52:23;;;;;;;6.45;5.00;;;16.90;53.10;;;;;;5057925;28;47498;-53
2024/01/07 01:54:51;;;;;;;7.88;5.05;;;16.90;52.70;;;;;;5055689;28;45210;-53
2024/01/07 01:57:22;;;;;;;6.43;4.70;;;16.90;52.70;;;;;;5057862;28;45114;-53
2024/01/07 01:59:49;;;;;;;8.63;5.10;;;16.90;52.50;;;;;;5056965;28;45350;-53
2024/01/07 02:02:17;;;;;;;7.10;4.57;;;16.90;52.40;;;;;;5058699;28;47932;-53
2024/01/07 02:04:44;;;;;;;7.30;4.60;;;16.90;52.50;;;;;;5059008;28;45127;-53
2024/01/07 02:07:11;;;;;;;7.93;5.00;;;16.90;52.30;;;;;;5058348;28;45179;-53
2024/01/07 02:09:39;;;;;;;5.63;4.32;;;16.90;52.70;;;;;;5058787;28;45240;-53
2024/01/07 02:12:11;;;;;;;7.10;4.53;;;16.90;53.00;;;;;;5058151;28;46223;-53
2024/01/07 02:14:38;;;;;;;7.18;4.38;;;16.90;52.80;;;;;;5055796;28;45273;-53
2024/01/07 02:17:05;;;;;;;6.88;4.60;;;16.90;52.30;;;;;;5057368;28;45209;-53
2024/01/07 02:19:33;;;;;;;6.57;5.05;;;16.90;52.40;;;;;;5059132;28;45135;-53
2024/01/07 02:22:00;;;;;;;7.35;5.07;;;16.90;52.30;;;;;;5057910;28;46323;-53
2024/01/07 02:24:28;;;;;;;7.72;4.82;;;16.90;52.10;;;;;;5058000;28;45115;-53
2024/01/07 02:26:55;;;;;;;7.20;4.93;;;16.80;52.50;;;;;;5059002;28;45152;-53
2024/01/07 02:29:21;;;;;;;7.03;4.80;;;16.90;52.20;;;;;;5054038;28;45270;-53
2024/01/07 02:31:48;;;;;;;7.25;5.20;;;16.80;52.00;;;;;;5058069;28;45391;-53
2024/01/07 02:34:15;;;;;;;6.85;4.30;;;16.80;52.30;;;;;;5057593;28;45349;-53
2024/01/07 02:36:41;;;;;;;7.03;4.90;;;16.80;51.90;;;;;;5058646;28;45134;-53
2024/01/07 02:39:08;;;;;;;6.70;4.57;;;16.80;51.10;;;;;;5054022;28;45238;-53
2024/01/07 02:41:36;;;;;;;6.75;4.45;;;16.80;51.10;;;;;;5057805;28;46264;-53
2024/01/07 02:44:03;;;;;;;6.88;4.45;;;16.70;51.00;;;;;;5057724;28;45127;-53
2024/01/07 02:46:32;;;;;;;6.70;4.70;;;16.80;51.10;;;;;;5057897;28;45194;-53
2024/01/07 02:48:59;;;;;;;6.40;4.43;;;16.80;51.10;;;;;;5058495;28;45174;-53
2024/01/07 02:51:26;;;;;;;6.30;4.30;;;16.80;50.90;;;;;;5056082;28;45213;-53
2024/01/07 02:53:52;;;;;;;5.28;3.75;;;16.80;51.10;;;;;;5057284;28;45307;-53
2024/01/07 02:56:19;;;;;;;6.38;4.40;;;16.80;50.40;;;;;;5058219;28;45177;-53
2024/01/07 02:58:47;;;;;;;5.72;3.80;;;16.80;51.40;;;;;;5058276;28;45158;-53
2024/01/07 03:01:14;;;;;;;6.15;4.20;;;16.80;50.20;;;;;;5056975;28;48793;-53
2024/01/07 03:03:40;;;;;;;5.07;3.42;;;16.80;49.80;;;;;;5058088;28;45312;-53
2024/01/07 03:06:08;;;;;;;4.65;3.67;;;16.80;49.60;;;;;;5055365;28;45161;-53
2024/01/07 03:08:35;;;;;;;5.30;3.47;;;16.80;50.00;;;;;;5055714;28;45189;-53
2024/01/07 03:11:06;;;;;;;6.35;4.07;;;16.80;49.70;;;;;;5058016;28;47785;-53
2024/01/07 03:13:32;;;;;;;5.18;3.45;;;16.70;49.40;;;;;;5057530;28;45233;-53
2024/01/07 03:16:01;;;;;;;4.63;3.35;;;16.70;49.40;;;;;;5055181;28;45486;-53
2024/01/07 03:18:28;;;;;;;5.43;3.40;;;16.70;49.30;;;;;;5057204;28;45447;-53
2024/01/07 03:20:55;;;;;;;6.03;3.70;;;16.70;49.30;;;;;;5055857;28;48185;-53
2024/01/07 03:23:22;;;;;;;4.90;3.72;;;16.70;49.20;;;;;;5056523;28;46115;-53
2024/01/07 03:25:49;;;;;;;5.68;3.75;;;16.70;49.10;;;;;;5050210;28;45321;-53
2024/01/07 03:28:15;;;;;;;5.60;3.65;;;16.70;49.00;;;;;;5057404;28;45152;-53
2024/01/07 03:30:42;;;;;;;5.25;3.78;;;16.70;49.10;;;;;;5055122;28;45447;-53
2024/01/07 03:33:10;;;;;;;5.07;3.40;;;16.70;49.10;;;;;;5057764;28;45168;-53
2024/01/07 03:35:37;;;;;;;5.35;3.25;;;16.70;49.00;;;;;;5060675;28;44709;-53
2024/01/07 03:38:04;;;;;;;5.10;3.80;;;16.70;50.10;;;;;;5060745;28;45193;-53
2024/01/07 03:40:31;;;;;;;4.78;3.67;;;16.70;49.00;;;;;;5060417;28;46318;-53
2024/01/07 03:42:58;;;;;;;5.03;3.38;;;16.70;48.70;;;;;;5059642;28;45182;-53
2024/01/07 03:45:25;;;;;;;6.35;3.47;;;16.70;48.50;;;;;;5057216;28;45158;-53
2024/01/07 03:47:52;;;;;;;5.25;3.65;;;16.70;48.50;;;;;;5061118;28;45193;-53
2024/01/07 03:50:20;;;;;;;5.68;3.50;;;16.70;48.40;;;;;;5060453;28;45300;-53
2024/01/07 03:52:47;;;;;;;4.15;3.15;;;16.70;48.20;;;;;;5060147;28;45157;-53
2024/01/07 03:55:14;;;;;;;5.10;3.45;;;16.70;48.30;;;;;;5058685;28;45230;-53
2024/01/07 03:57:41;;;;;;;6.38;4.20;;;16.70;48.00;;;;;;5059968;28;45497;-53
2024/01/07 04:00:09;;;;;;;5.18;3.70;;;16.70;48.10;;;;;;5060022;28;45182;-53
2024/01/07 04:02:36;;;;;;;5.60;4.05;;;16.70;48.00;;;;;;5060365;28;45212;-53
2024/01/07 04:05:03;;;;;;;5.93;4.15;;;16.70;47.80;;;;;;5059735;28;45186;-53
2024/01/07 04:07:31;;;;;;;5.68;4.10;;;16.70;48.00;;;;;;5057857;28;46075;-53
2024/01/07 04:09:57;;;;;;;5.70;3.65;;;16.70;48.00;;;;;;5060432;28;46526;-53
2024/01/07 04:12:24;;;;;;;6.43;3.75;;;16.70;47.90;;;;;;5058934;28;45162;-53
2024/01/07 04:14:51;;;;;;;6.40;3.85;;;16.70;48.00;;;;;;5057447;28;45239;-53
2024/01/07 04:17:18;;;;;;;5.63;3.83;;;16.60;47.70;;;;;;5059785;28;45235;-53
2024/01/07 04:19:44;;;;;;;5.82;3.72;;;16.70;47.80;;;;;;5057090;28;45195;-53
2024/01/07 04:22:11;;;;;;;7.25;4.40;;;16.60;47.90;;;;;;5057952;28;45204;-53
2024/01/07 04:24:41;;;;;;;5.88;3.70;;;16.60;47.70;;;;;;5060034;28;45511;-53
2024/01/07 04:27:08;;;;;;;6.47;4.30;;;16.60;47.50;;;;;;5059071;28;45254;-53
2024/01/07 04:29:35;;;;;;;5.90;3.63;;;16.60;47.60;;;;;;5060760;28;44946;-53
2024/01/07 04:32:01;;;;;;;5.68;3.67;;;16.60;47.40;;;;;;5058939;28;46095;-53
2024/01/07 04:34:38;;;;;;;5.55;3.38;;;16.60;47.40;;;;;;5059990;28;45236;-53
2024/01/07 04:37:12;;;;;;;4.45;2.80;;;16.60;48.00;;;;;;4831513;28;45355;-54
2024/01/07 04:40:07;;;;;;;5.32;3.60;;;16.60;54.50;;;;;;4836450;28;45528;-53
2024/01/07 04:42:37;;;;;;;5.50;3.80;;;16.60;55.90;;;;;;4832066;28;45281;-53
2024/01/07 04:45:10;;;;;;;4.55;3.05;;;16.60;52.10;;;;;;4842370;28;44946;-54
2024/01/07 04:47:53;;;;;;;5.40;3.35;;;16.60;50.80;;;;;;4827406;28;46253;-54
2024/01/07 04:50:57;;;;;;;5.50;3.53;;;16.70;49.80;;;;;;4836810;28;46996;-53
2024/01/07 04:53:36;;;;;;;4.50;3.05;;;16.70;49.10;;;;;;4843142;28;45273;-53
2024/01/07 04:56:22;;;;;;;5.82;3.53;;;16.70;48.70;;;;;;4835720;28;45217;-53
2024/01/07 04:59:13;;;;;;;5.55;3.17;;;16.70;48.10;;;;;;4864927;28;45628;-54
2024/01/07 05:01:45;;;;;;;5.75;3.92;;;16.70;47.90;;;;;;4866273;28;47208;-54
2024/01/07 05:04:42;;;;;;;5.15;3.72;;;16.60;47.80;;;;;;4872966;28;46073;-53
2024/01/07 05:07:35;;;;;;;5.00;3.28;;;16.60;47.20;;;;;;4847181;28;45351;-54
2024/01/07 05:10:03;;;;;;;5.53;3.47;;;16.60;47.10;;;;;;4860719;28;45526;-54
2024/01/07 05:12:46;;;;;;;5.75;3.50;;;16.60;47.60;;;;;;4836781;28;46578;-54
2024/01/07 05:15:13;;;;;;;5.15;3.45;;;16.60;47.40;;;;;;4825698;28;45370;-54
2024/01/07 05:17:57;;;;;;;5.88;3.72;;;16.60;47.40;;;;;;4837259;28;45481;-54
2024/01/07 05:20:57;;;;;;;6.68;3.83;;;16.60;46.80;;;;;;4844694;28;45497;-54
2024/01/07 05:23:24;;;;;;;5.40;3.45;;;16.60;46.50;;;;;;4828839;28;46373;-54
2024/01/07 05:26:05;;;;;;;4.82;3.13;;;16.60;47.10;;;;;;4828343;28;45218;-54
2024/01/07 05:28:46;;;;;;;5.10;3.17;;;16.60;46.80;;;;;;4836319;28;45538;-54
2024/01/07 05:31:23;;;;;;;5.38;3.50;;;16.50;46.60;;;;;;4842425;28;45167;-54
2024/01/07 05:33:51;;;;;;;5.20;3.33;;;16.60;46.40;;;;;;4837433;28;45223;-54
2024/01/07 05:36:17;;;;;;;4.30;3.20;;;16.60;46.60;;;;;;4838372;28;45494;-54
2024/01/07 05:38:44;;;;;;;5.10;2.95;;;16.50;46.40;;;;;;4830151;28;45276;-53
2024/01/07 05:41:52;;;;;;;4.78;3.30;;;16.50;46.20;;;;;;4850517;28;45332;-53
2024/01/07 05:44:54;;;;;;;4.38;3.15;;;16.50;45.60;;;;;;4865669;28;46324;-53
2024/01/07 05:47:33;;;;;;;6.05;3.00;;;16.50;45.60;;;;;;4859036;28;44923;-54
2024/01/07 05:49:59;;;;;;;4.15;2.70;;;16.50;45.60;;;;;;4811764;28;45433;-54
2024/01/07 05:55:07;;;;;;;5.00;3.17;;;16.50;45.90;;;;;;4830939;28;45739;-54
2024/01/07 05:57:49;;;;;;;4.65;3.33;;;16.50;45.50;;;;;;4839215;28;45413;-53
2024/01/07 06:00:18;;;;;;;4.60;3.17;;;16.50;45.30;;;;;;4831631;28;45339;-53
2024/01/07 06:02:58;;;;;;;4.90;3.30;;;16.60;45.80;;;;;;4871211;28;45452;-53
2024/01/07 06:05:47;;;;;;;5.32;3.28;;;16.50;45.30;;;;;;4852478;28;45670;-54
2024/01/07 06:08:23;;;;;;;3.85;3.03;;;16.60;45.30;;;;;;4845732;28;45588;-54
2024/01/07 06:10:51;;;;;;;6.70;3.28;;;16.60;45.20;;;;;;4837660;28;45761;-53
2024/01/07 06:13:23;;;;;;;5.07;3.15;;;16.50;45.50;;;;;;4838255;28;45383;-54
2024/01/07 06:15:52;;;;;;;6.38;3.42;;;16.50;45.60;;;;;;4833883;28;46722;-53
2024/01/07 06:18:20;;;;;;;5.15;3.30;;;16.50;45.50;;;;;;4821158;28;45594;-53
2024/01/07 06:21:19;;;;;;;5.20;3.08;;;16.50;45.40;;;;;;4852451;28;45458;-53
2024/01/07 06:23:54;;;;;;;3.67;2.97;;;16.50;45.00;;;;;;4868291;28;45306;-53
2024/01/07 06:26:23;;;;;;;4.35;3.00;;;16.50;45.10;;;;;;4843364;28;45883;-53
2024/01/07 06:29:26;;;;;;;4.82;3.00;;;16.50;45.50;;;;;;4838030;28;44899;-53
2024/01/07 06:32:35;;;;;;;3.88;2.85;;;16.50;45.00;;;;;;4859232;28;45473;-53
2024/01/07 06:35:23;;;;;;;5.38;3.15;;;16.50;44.80;;;;;;4838967;28;45384;-53
2024/01/07 06:37:50;;;;;;;4.57;3.15;;;16.50;44.60;;;;;;4820916;28;45790;-53
2024/01/07 06:40:33;;;;;;;4.32;2.92;;;16.50;45.20;;;;;;4850562;28;45410;-53
2024/01/07 22:08:02;;;;;;;2.15;1.30;;;16.00;37.50;;;;;;4875730;23;45497;-51
2024/01/07 22:10:33;;;;;;;3.35;1.33;;;16.00;37.50;;;;;;4810939;28;46986;-51
2024/01/07 22:13:22;;;;;;;4.50;1.70;;;16.00;36.90;;;;;;4818864;28;45546;-51
2024/01/07 22:52:01;;;;;;;2.65;1.48;;;15.60;41.30;;;;;;4942072;27;45270;-51
2024/01/07 22:54:31;;;;;;;2.05;1.38;;;15.50;42.00;;;;;;4949841;27;45310;-51
2024/01/07 22:56:57;;;;;;;2.10;1.40;;;15.50;41.80;;;;;;4898159;27;45231;-51
2024/01/07 22:59:24;;;;;;;2.13;1.23;;;15.50;41.80;;;;;;4886836;27;45643;-51
2024/01/07 23:02:10;;;;;;;1.52;1.40;;;15.50;41.80;;;;;;4892922;27;45445;-51
2024/01/07 23:05:41;;;;;;;3.67;1.60;;;15.50;41.70;;;;;;4893244;27;45538;-51
2024/01/07 23:08:19;;;;;;;3.63;1.30;;;15.50;42.10;;;;;;4892660;27;45454;-51
2024/01/07 23:10:47;;;;;;;2.17;1.40;;;15.50;42.00;;;;;;4891122;27;45409;-51
2024/01/07 23:13:17;;;;;;;2.15;1.30;;;15.50;42.20;;;;;;4910665;27;46443;-51
2024/01/07 23:15:56;;;;;;;2.35;1.38;;;15.50;42.20;;;;;;4890595;27;45788;-51
2024/01/07 23:18:32;;;;;;;1.73;1.30;;;15.50;42.20;;;;;;4898153;27;44903;-51
2024/01/07 23:21:24;;;;;;;2.78;1.48;;;15.50;42.20;;;;;;4880584;27;45160;-51
2024/01/07 23:23:53;;;;;;;1.83;1.30;;;15.50;41.80;;;;;;4916733;27;46556;-51
2024/01/07 23:26:32;;;;;;;3.10;1.13;;;15.50;42.00;;;;;;4921613;27;45154;-51
2024/01/07 23:29:11;;;;;;;2.55;1.02;;;15.50;42.50;;;;;;4880920;27;45551;-51
2024/01/07 23:32:01;;;;;;;1.65;0.90;;;15.50;42.10;;;;;;4928618;27;45610;-51
2024/01/07 23:34:29;;;;;;;2.15;1.20;;;15.50;42.10;;;;;;4900962;27;45939;-51
2024/01/07 23:36:56;;;;;;;3.60;1.23;;;15.50;42.30;;;;;;4878972;27;46272;-51
2024/01/07 23:39:32;;;;;;;1.90;1.10;;;15.50;42.40;;;;;;4878580;27;45429;-52
2024/01/07 23:41:59;;;;;;;3.58;1.20;;;15.50;42.10;;;;;;4918457;27;45211;-51
2024/01/07 23:44:26;;;;;;;2.90;1.10;;;15.50;41.90;;;;;;4904080;27;46299;-51
2024/01/07 23:50:02;;;;;;;2.03;1.00;;;15.50;41.80;;;;;;4862457;27;45548;-51
2024/01/07 23:52:50;;;;;;;1.23;0.80;;;15.50;41.90;;;;;;4921260;27;45518;-51
2024/01/07 23:55:19;;;;;;;1.17;0.90;;;15.50;41.80;;;;;;4885551;27;46425;-51
2024/01/07 23:57:59;;;;;;;1.33;1.00;;;15.50;41.90;;;;;;4893108;27;45455;-51
